Time;durP1;ratioP1;P1;durP2;ratioP2;P2;SDS_P1;SDS_P2;PMS_P1;PMS_P2;Temp;Humidity;BMP_temperature;BMP_pressure;BME280_temperature;BME280_humidity;BME280_pressure;Samples;Min_cycle;Max_cycle;Signal;HPM_P1;HPM_P2
2023/10/08 00:02:06;;;;;;;5.70;2.03;;;10.00;99.90;;;;;;5094547;28;20361;-82
2023/10/08 00:04:37;;;;;;;7.80;2.80;;;10.00;99.90;;;;;;5090896;28;20225;-81
2023/10/08 00:07:07;;;;;;;7.27;2.43;;;10.00;99.90;;;;;;5092939;28;20612;-81
2023/10/08 00:09:36;;;;;;;5.17;2.40;;;10.00;99.90;;;;;;5090469;28;20229;-81
2023/10/08 00:12:04;;;;;;;8.03;2.23;;;10.00;99.90;;;;;;5097065;27;20257;-81
2023/10/08 00:14:32;;;;;;;11.07;3.37;;;10.00;99.90;;;;;;5104929;28;20286;-80
2023/10/08 00:17:00;;;;;;;8.93;2.50;;;10.00;99.90;;;;;;5093508;28;21964;-81
2023/10/08 00:19:33;;;;;;;11.73;2.60;;;10.00;99.90;;;;;;5084087;28;20327;-81
2023/10/08 00:22:04;;;;;;;9.17;2.93;;;10.00;99.90;;;;;;5095190;28;20214;-81
2023/10/08 00:24:33;;;;;;;10.00;2.53;;;10.00;99.90;;;;;;5091304;28;20473;-81
2023/10/08 00:27:00;;;;;;;8.03;2.43;;;10.10;99.90;;;;;;5090653;28;20220;-82
2023/10/08 00:29:27;;;;;;;11.87;2.57;;;10.00;99.90;;;;;;5095913;28;20772;-82
2023/10/08 00:31:56;;;;;;;10.10;2.60;;;10.00;99.90;;;;;;5101501;28;20222;-82
2023/10/08 00:34:24;;;;;;;7.20;2.90;;;10.00;99.90;;;;;;5090023;28;20234;-83
2023/10/08 00:36:52;;;;;;;9.00;2.83;;;10.00;99.90;;;;;;5086968;28;20759;-83
2023/10/08 00:39:23;;;;;;;10.57;2.90;;;9.90;99.90;;;;;;5087268;28;20288;-82
2023/10/08 00:41:58;;;;;;;8.93;2.67;;;9.90;99.90;;;;;;5093945;28;20233;-82
2023/10/08 00:44:29;;;;;;;8.30;2.93;;;9.90;99.90;;;;;;5089203;28;20293;-82
2023/10/08 00:47:00;;;;;;;12.03;3.33;;;9.90;99.90;;;;;;5087893;28;20330;-82
2023/10/08 00:49:47;;;;;;;12.10;3.20;;;9.90;99.90;;;;;;5087878;28;20222;-83
2023/10/08 00:52:38;;;;;;;10.53;3.10;;;9.90;99.90;;;;;;5088201;28;20276;-82
2023/10/08 00:55:09;;;;;;;9.70;3.03;;;9.90;99.90;;;;;;5086622;28;20225;-81
2023/10/08 00:57:42;;;;;;;6.33;3.23;;;9.90;99.90;;;;;;5088619;28;20226;-82
2023/10/08 01:00:16;;;;;;;11.43;3.10;;;9.90;99.90;;;;;;5091592;28;20219;-82
2023/10/08 01:02:46;;;;;;;10.57;3.87;;;9.90;99.90;;;;;;5086065;28;20231;-81
2023/10/08 01:05:15;;;;;;;10.73;3.67;;;9.90;99.90;;;;;;5087358;28;20226;-81
2023/10/08 01:07:45;;;;;;;9.63;3.40;;;9.90;99.90;;;;;;5092589;28;20216;-80
2023/10/08 01:10:19;;;;;;;12.87;3.83;;;9.90;99.90;;;;;;5086124;28;20297;-81
2023/10/08 01:13:03;;;;;;;11.30;4.13;;;9.80;99.90;;;;;;5087740;28;20313;-80
2023/10/08 01:15:35;;;;;;;7.80;3.27;;;9.80;99.90;;;;;;5092041;28;20279;-80
2023/10/08 01:18:04;;;;;;;7.97;3.57;;;9.80;99.90;;;;;;5092462;28;20237;-81
2023/10/08 01:20:34;;;;;;;10.80;3.30;;;9.80;99.90;;;;;;5086375;28;20230;-82
2023/10/08 01:23:09;;;;;;;9.27;3.03;;;9.90;99.90;;;;;;5080803;28;20296;-82
2023/10/08 01:25:37;;;;;;;10.67;3.60;;;9.80;99.90;;;;;;5099599;28;20217;-80
2023/10/08 01:28:14;;;;;;;8.93;3.13;;;9.80;99.90;;;;;;5092127;28;20222;-81
2023/10/08 01:30:42;;;;;;;12.30;3.03;;;9.80;99.90;;;;;;5082616;28;20278;-81
2023/10/08 01:33:13;;;;;;;8.37;3.20;;;9.80;99.90;;;;;;5085057;28;20217;-80
2023/10/08 01:35:41;;;;;;;12.87;3.50;;;9.80;99.90;;;;;;5086730;28;20280;-81
2023/10/08 01:38:13;;;;;;;11.60;3.60;;;9.80;99.90;;;;;;5093083;28;20332;-80
2023/10/08 01:40:41;;;;;;;10.03;3.53;;;9.80;99.90;;;;;;5084648;28;20640;-79
2023/10/08 01:43:09;;;;;;;9.33;3.40;;;9.80;99.90;;;;;;5097958;28;20225;-78
2023/10/08 01:45:42;;;;;;;12.83;3.40;;;9.80;99.90;;;;;;5084634;28;20232;-78
2023/10/08 01:48:10;;;;;;;12.23;3.53;;;9.80;99.90;;;;;;5099540;28;20220;-78
2023/10/08 01:50:38;;;;;;;9.47;3.33;;;9.80;99.90;;;;;;5078755;28;20283;-79
2023/10/08 01:53:08;;;;;;;12.37;2.93;;;9.80;99.90;;;;;;5082128;28;20217;-78
2023/10/08 01:55:48;;;;;;;10.80;2.80;;;9.70;99.90;;;;;;5083836;28;20316;-78
2023/10/08 01:58:17;;;;;;;11.30;3.50;;;9.70;99.90;;;;;;5100450;28;20264;-78
2023/10/08 02:00:45;;;;;;;10.43;3.10;;;9.80;99.90;;;;;;5075198;28;20251;-78
2023/10/08 02:03:16;;;;;;;8.83;3.27;;;9.80;99.90;;;;;;5085068;28;20296;-78
2023/10/08 02:05:43;;;;;;;9.93;3.00;;;9.80;99.90;;;;;;5091706;28;20290;-78
2023/10/08 02:08:12;;;;;;;12.67;3.00;;;9.80;99.90;;;;;;5083671;28;20635;-79
2023/10/08 02:10:42;;;;;;;10.03;3.10;;;9.70;99.90;;;;;;5096846;28;20214;-79
2023/10/08 02:13:10;;;;;;;11.77;3.37;;;9.80;99.90;;;;;;5094196;28;20254;-78
2023/10/08 02:15:38;;;;;;;12.03;3.10;;;9.80;99.90;;;;;;5081947;28;20245;-78
2023/10/08 02:18:06;;;;;;;10.50;3.13;;;9.70;99.90;;;;;;5081174;28;20287;-79
2023/10/08 02:20:33;;;;;;;13.57;3.50;;;9.70;99.90;;;;;;5084075;28;20236;-80
2023/10/08 02:23:00;;;;;;;6.93;2.90;;;9.80;99.90;;;;;;5082907;28;20250;-79
2023/10/08 02:25:27;;;;;;;11.57;3.20;;;9.80;99.90;;;;;;5082516;28;20222;-79
2023/10/08 02:27:55;;;;;;;8.37;2.73;;;9.70;99.90;;;;;;5084275;28;20274;-79
2023/10/08 02:30:22;;;;;;;9.23;2.37;;;9.70;99.90;;;;;;5085862;28;20229;-79
2023/10/08 02:32:49;;;;;;;8.03;2.77;;;9.70;99.90;;;;;;5083657;28;20756;-80
2023/10/08 02:35:16;;;;;;;8.80;2.83;;;9.70;99.90;;;;;;5082589;28;20218;-80
2023/10/08 02:37:45;;;;;;;8.23;2.67;;;9.70;99.90;;;;;;5083601;28;20223;-79
2023/10/08 02:40:19;;;;;;;10.10;2.37;;;9.60;99.90;;;;;;5080658;28;20222;-78
2023/10/08 02:42:47;;;;;;;8.63;2.80;;;9.60;99.90;;;;;;5079555;27;20229;-78
2023/10/08 02:45:16;;;;;;;6.00;2.17;;;9.60;99.90;;;;;;5079903;28;20211;-78
2023/10/08 02:47:44;;;;;;;6.40;2.20;;;9.60;99.90;;;;;;5085156;28;20218;-78
2023/10/08 02:50:16;;;;;;;5.93;2.30;;;9.60;99.90;;;;;;5084553;28;20336;-78
2023/10/08 02:52:44;;;;;;;7.33;2.10;;;9.60;99.90;;;;;;5099150;27;20730;-78
2023/10/08 02:55:23;;;;;;;9.50;2.70;;;9.60;99.90;;;;;;5081522;28;20229;-78
2023/10/08 02:57:51;;;;;;;8.07;2.20;;;9.60;99.90;;;;;;5079435;28;20213;-78
2023/10/08 03:00:20;;;;;;;6.27;2.30;;;9.60;99.90;;;;;;5082274;28;20223;-78
2023/10/08 03:02:47;;;;;;;5.87;1.97;;;9.50;99.90;;;;;;5079740;28;20245;-78
2023/10/08 03:05:16;;;;;;;9.23;2.30;;;9.60;99.90;;;;;;5082829;28;20592;-80
2023/10/08 03:07:43;;;;;;;8.50;1.83;;;9.50;99.90;;;;;;5095292;27;20217;-79
2023/10/08 03:10:18;;;;;;;5.97;2.00;;;9.50;99.90;;;;;;5081146;28;20715;-80
2023/10/08 03:12:47;;;;;;;6.17;2.13;;;9.50;99.90;;;;;;5094817;28;20323;-79
2023/10/08 03:15:27;;;;;;;7.00;2.13;;;9.50;99.90;;;;;;5080674;28;20229;-80
2023/10/08 03:17:59;;;;;;;8.63;1.90;;;9.50;99.90;;;;;;5089229;28;20226;-79
2023/10/08 03:20:29;;;;;;;5.87;1.97;;;9.50;99.90;;;;;;5080908;28;20222;-80
2023/10/08 03:22:57;;;;;;;7.07;1.60;;;9.50;99.90;;;;;;5083083;28;20620;-80
2023/10/08 03:25:26;;;;;;;5.60;2.10;;;9.50;99.90;;;;;;5094684;28;20595;-80
2023/10/08 03:27:54;;;;;;;8.17;2.20;;;9.40;99.90;;;;;;5081570;28;20297;-79
2023/10/08 03:30:21;;;;;;;7.77;2.10;;;9.40;99.90;;;;;;5081566;28;20414;-80
2023/10/08 03:32:54;;;;;;;9.77;2.17;;;9.40;99.90;;;;;;5083326;28;20236;-80
2023/10/08 03:35:27;;;;;;;6.43;1.90;;;9.40;99.90;;;;;;5096216;28;20214;-81
2023/10/08 03:38:17;;;;;;;7.10;2.00;;;9.40;99.90;;;;;;5080388;28;20429;-80
2023/10/08 03:40:43;;;;;;;6.20;1.87;;;9.40;99.90;;;;;;5092138;28;20739;-79
2023/10/08 03:43:19;;;;;;;5.73;1.73;;;9.30;99.90;;;;;;5080846;28;20230;-79
2023/10/08 03:45:51;;;;;;;5.00;1.57;;;9.30;99.90;;;;;;5082006;28;20232;-79
2023/10/08 03:48:22;;;;;;;5.73;1.63;;;9.30;99.90;;;;;;5079011;28;20320;-78
2023/10/08 03:50:56;;;;;;;6.10;1.83;;;9.20;99.90;;;;;;5081817;28;20672;-79
2023/10/08 03:53:24;;;;;;;6.40;1.97;;;9.20;99.90;;;;;;5083114;28;20230;-79
2023/10/08 03:55:55;;;;;;;6.13;1.80;;;9.20;99.90;;;;;;5078952;28;20244;-79
2023/10/08 03:58:29;;;;;;;5.87;2.10;;;9.10;99.90;;;;;;5082766;28;20223;-77
2023/10/08 04:01:08;;;;;;;4.83;1.70;;;9.10;99.90;;;;;;5085690;28;20270;-82
2023/10/08 04:03:58;;;;;;;7.70;1.90;;;9.10;99.90;;;;;;5081401;28;20821;-80
2023/10/08 04:06:30;;;;;;;5.47;1.70;;;9.10;99.90;;;;;;5083450;28;20254;-80
2023/10/08 04:09:11;;;;;;;4.73;1.50;;;9.00;99.90;;;;;;5082868;28;20706;-80
2023/10/08 04:11:51;;;;;;;7.23;1.73;;;9.00;99.90;;;;;;5083799;28;20231;-81
2023/10/08 04:14:19;;;;;;;5.10;1.73;;;8.90;99.90;;;;;;5094548;28;20848;-82
2023/10/08 04:16:46;;;;;;;4.77;1.47;;;8.90;99.90;;;;;;5078078;28;20737;-81
2023/10/08 04:19:18;;;;;;;6.57;1.73;;;8.90;99.90;;;;;;5090482;28;20747;-81
2023/10/08 04:21:53;;;;;;;6.20;1.80;;;8.90;99.90;;;;;;5082206;28;20306;-79
2023/10/08 04:24:28;;;;;;;5.77;1.80;;;8.90;99.90;;;;;;5098874;28;20746;-79
2023/10/08 04:26:57;;;;;;;7.50;1.80;;;8.80;99.90;;;;;;5082170;28;20228;-79
2023/10/08 04:29:25;;;;;;;6.27;1.53;;;8.80;99.90;;;;;;5083483;28;20745;-80
2023/10/08 04:32:01;;;;;;;5.63;1.47;;;8.80;99.90;;;;;;5097520;28;20806;-81
2023/10/08 04:34:29;;;;;;;5.87;1.70;;;8.80;99.90;;;;;;5093712;28;20221;-83
2023/10/08 04:37:00;;;;;;;6.43;1.80;;;8.80;99.90;;;;;;5083513;28;20801;-81
2023/10/08 04:39:32;;;;;;;5.83;1.87;;;8.70;99.90;;;;;;5086420;28;20607;-81
2023/10/08 04:42:00;;;;;;;4.97;1.57;;;8.70;99.90;;;;;;5088330;28;20332;-81
2023/10/08 04:44:31;;;;;;;4.80;1.33;;;8.70;99.90;;;;;;5088033;28;20227;-80
2023/10/08 04:47:04;;;;;;;8.40;1.60;;;8.70;99.90;;;;;;5088124;28;20265;-81
2023/10/08 04:49:32;;;;;;;5.10;1.40;;;8.70;99.90;;;;;;5084707;28;20236;-81
2023/10/08 04:52:08;;;;;;;4.90;1.90;;;8.70;99.90;;;;;;5090396;28;20247;-81
2023/10/08 04:54:40;;;;;;;3.93;1.80;;;8.60;99.90;;;;;;5101035;27;20224;-82
2023/10/08 04:57:14;;;;;;;6.37;2.03;;;8.60;99.90;;;;;;5092001;28;20245;-84
2023/10/08 04:59:43;;;;;;;6.97;1.90;;;8.60;99.90;;;;;;5093612;28;20224;-82
2023/10/08 05:02:20;;;;;;;8.80;1.80;;;8.70;99.90;;;;;;5092511;27;20285;-84
2023/10/08 05:05:07;;;;;;;5.10;1.63;;;8.60;99.90;;;;;;5104554;27;20227;-83
2023/10/08 05:13:16;;;;;;;6.83;1.60;;;8.60;99.90;;;;;;5088037;28;20213;-81
2023/10/08 05:16:01;;;;;;;5.77;1.60;;;8.70;99.90;;;;;;5087213;28;20463;-81
2023/10/08 05:18:54;;;;;;;4.37;1.33;;;8.70;99.90;;;;;;5100627;28;20242;-81
2023/10/08 05:21:25;;;;;;;5.63;1.63;;;8.60;99.90;;;;;;5088639;28;20315;-81
2023/10/08 05:26:45;;;;;;;5.23;1.50;;;8.60;99.90;;;;;;5087727;28;20280;-81
2023/10/08 05:35:30;;;;;;;2.63;1.20;;;8.60;99.90;;;;;;5089880;28;20225;-83
2023/10/08 05:37:42;;;;;;;3.93;1.17;;;8.60;99.90;;;;;;5108349;28;20216;-82
2023/10/08 05:40:37;;;;;;;5.77;1.60;;;8.60;99.90;;;;;;5094283;28;20211;-81
2023/10/08 05:43:22;;;;;;;4.17;1.43;;;8.60;99.90;;;;;;5090957;28;20415;-81
2023/10/08 05:46:19;;;;;;;3.60;1.33;;;8.60;99.90;;;;;;5091301;28;20216;-84
2023/10/08 05:48:50;;;;;;;4.40;2.27;;;8.60;99.90;;;;;;5075080;28;20233;-82
2023/10/08 05:51:33;;;;;;;4.97;1.57;;;8.60;99.90;;;;;;5092177;27;20772;-83
2023/10/08 05:54:10;;;;;;;4.07;1.47;;;8.50;99.90;;;;;;5093980;28;20229;-83
2023/10/08 05:57:04;;;;;;;5.07;1.67;;;8.50;99.90;;;;;;5113913;28;20302;-82
2023/10/08 05:59:38;;;;;;;5.20;1.77;;;8.50;99.90;;;;;;5111244;28;20236;-85
2023/10/08 06:02:27;;;;;;;8.10;1.70;;;8.50;99.90;;;;;;5099596;28;20257;-84
2023/10/08 06:05:10;;;;;;;6.23;1.50;;;8.50;99.90;;;;;;5089811;28;20224;-82
2023/10/08 06:07:48;;;;;;;3.30;1.60;;;8.50;99.90;;;;;;5095825;28;20222;-82
2023/10/08 06:10:41;;;;;;;5.37;1.50;;;8.50;99.90;;;;;;5093987;28;20332;-82
2023/10/08 06:13:09;;;;;;;5.87;1.70;;;8.50;99.90;;;;;;5092263;28;20218;-82
2023/10/08 06:15:44;;;;;;;4.43;1.33;;;8.40;99.90;;;;;;5092665;28;20283;-82
2023/10/08 06:18:10;;;;;;;5.40;1.93;;;8.40;99.90;;;;;;5092016;28;20230;-82
2023/10/08 06:20:40;;;;;;;5.30;1.50;;;8.30;99.90;;;;;;5092316;28;20228;-81
2023/10/08 06:23:07;;;;;;;8.20;1.90;;;8.30;99.90;;;;;;5077354;28;20229;-82
2023/10/08 06:25:44;;;;;;;6.17;1.70;;;8.30;99.90;;;;;;5090112;28;20599;-81
2023/10/08 06:28:13;;;;;;;4.63;1.80;;;8.30;99.90;;;;;;5088039;28;20223;-81
2023/10/08 06:30:44;;;;;;;8.00;1.90;;;8.20;99.90;;;;;;5090449;28;20330;-81
2023/10/08 06:33:11;;;;;;;4.30;1.87;;;8.20;99.90;;;;;;5102711;28;20273;-81
2023/10/08 06:35:37;;;;;;;8.03;1.93;;;8.20;99.90;;;;;;5089231;28;20585;-80
2023/10/08 06:38:09;;;;;;;8.30;1.43;;;8.10;99.90;;;;;;5091217;28;20226;-83
2023/10/08 06:40:41;;;;;;;6.43;1.57;;;8.10;99.90;;;;;;5090876;28;20217;-82
2023/10/08 06:43:21;;;;;;;6.70;1.77;;;8.10;99.90;;;;;;5090088;28;20221;-83
2023/10/08 06:45:52;;;;;;;5.67;1.60;;;8.10;99.90;;;;;;5087676;28;20868;-82
2023/10/08 06:48:20;;;;;;;5.93;1.80;;;8.10;99.90;;;;;;5086356;28;20232;-81
2023/10/08 06:50:48;;;;;;;5.00;1.60;;;8.10;99.90;;;;;;5090479;28;20226;-81
2023/10/08 06:53:15;;;;;;;4.27;1.70;;;8.10;99.90;;;;;;5088084;28;20231;-82
2023/10/08 06:55:43;;;;;;;6.70;2.00;;;8.10;99.90;;;;;;5090583;27;20293;-82
2023/10/08 06:58:11;;;;;;;5.30;1.83;;;8.10;99.90;;;;;;5089846;28;20228;-81
2023/10/08 07:00:39;;;;;;;5.70;1.50;;;8.20;99.90;;;;;;5090820;28;20231;-83
2023/10/08 07:03:10;;;;;;;5.70;1.60;;;8.20;99.90;;;;;;5078154;28;20249;-86
2023/10/08 07:05:40;;;;;;;6.47;1.50;;;8.20;99.90;;;;;;5091200;28;20239;-85
2023/10/08 07:08:09;;;;;;;6.00;1.40;;;8.20;99.90;;;;;;5093915;27;20229;-83
2023/10/08 07:10:35;;;;;;;5.50;1.80;;;8.20;99.90;;;;;;5088201;28;20698;-82
2023/10/08 07:13:03;;;;;;;6.80;1.70;;;8.30;99.90;;;;;;5096622;28;20816;-81
2023/10/08 07:15:32;;;;;;;6.33;1.80;;;8.30;99.90;;;;;;5090605;28;20630;-81
2023/10/08 07:18:08;;;;;;;5.10;1.40;;;8.30;99.90;;;;;;5086783;28;20273;-80
2023/10/08 07:20:41;;;;;;;9.27;2.97;;;8.40;99.90;;;;;;5089217;28;20213;-83
2023/10/08 07:23:18;;;;;;;5.03;1.70;;;8.40;99.90;;;;;;5103521;28;20222;-86
2023/10/08 07:25:53;;;;;;;7.77;1.50;;;8.40;99.90;;;;;;5088318;28;20270;-85
2023/10/08 07:28:25;;;;;;;5.83;1.80;;;8.40;99.90;;;;;;5086292;28;20282;-81
2023/10/08 07:30:52;;;;;;;5.70;1.37;;;8.50;99.90;;;;;;5091160;28;20222;-81
2023/10/08 07:33:19;;;;;;;3.20;1.40;;;8.50;99.90;;;;;;5090300;28;20217;-81
2023/10/08 07:35:54;;;;;;;4.47;1.90;;;8.60;99.90;;;;;;5103802;28;20233;-83
2023/10/08 07:38:22;;;;;;;4.70;1.60;;;8.60;99.90;;;;;;5084468;28;20248;-82
2023/10/08 07:40:49;;;;;;;5.90;1.73;;;8.60;99.90;;;;;;5088899;28;20557;-83
2023/10/08 07:43:20;;;;;;;5.77;1.57;;;8.70;99.90;;;;;;5086403;28;20242;-82
2023/10/08 07:45:47;;;;;;;3.63;1.37;;;8.70;99.90;;;;;;5082629;28;20269;-81
2023/10/08 07:48:15;;;;;;;4.07;1.50;;;8.80;99.90;;;;;;5086488;28;20325;-81
2023/10/08 07:50:46;;;;;;;5.80;1.80;;;8.80;99.90;;;;;;5107224;28;20219;-82
2023/10/08 07:53:18;;;;;;;7.43;1.90;;;8.90;99.90;;;;;;5086533;28;20258;-78
2023/10/08 07:55:47;;;;;;;2.50;1.20;;;8.90;99.90;;;;;;5083716;28;20261;-79
2023/10/08 07:58:15;;;;;;;6.50;1.53;;;9.00;99.90;;;;;;5084147;28;20758;-79
2023/10/08 08:00:51;;;;;;;5.10;1.10;;;9.00;99.90;;;;;;5083198;28;20220;-79
2023/10/08 08:03:19;;;;;;;4.20;1.20;;;9.00;99.90;;;;;;5088162;28;20234;-79
2023/10/08 08:05:47;;;;;;;2.63;1.20;;;9.10;99.90;;;;;;5082423;28;20247;-79
2023/10/08 08:08:17;;;;;;;3.53;1.27;;;9.10;99.90;;;;;;5075124;28;20600;-79
2023/10/08 08:10:45;;;;;;;3.73;1.77;;;9.20;99.90;;;;;;5083662;28;20244;-79
2023/10/08 08:13:13;;;;;;;3.53;1.27;;;9.20;99.90;;;;;;5087050;28;20228;-79
2023/10/08 08:15:43;;;;;;;3.33;1.10;;;9.20;99.90;;;;;;5087685;28;20770;-79
2023/10/08 08:18:22;;;;;;;4.07;1.20;;;9.30;99.90;;;;;;5079292;28;20229;-79
2023/10/08 08:20:50;;;;;;;2.57;1.30;;;9.30;99.90;;;;;;5092386;28;20711;-79
2023/10/08 08:23:17;;;;;;;3.07;1.17;;;9.50;99.90;;;;;;5086751;28;20237;-79
2023/10/08 08:26:05;;;;;;;7.53;1.63;;;9.60;99.90;;;;;;5086204;28;20275;-79
2023/10/08 08:28:32;;;;;;;7.13;1.33;;;9.70;99.90;;;;;;5086158;28;20227;-79
2023/10/08 08:31:04;;;;;;;3.10;1.27;;;9.90;99.90;;;;;;5087230;28;20673;-79
2023/10/08 08:33:52;;;;;;;5.93;1.50;;;10.20;99.90;;;;;;5085024;28;20696;-79
2023/10/08 08:36:20;;;;;;;3.13;1.00;;;10.60;99.90;;;;;;5086993;28;20222;-79
2023/10/08 08:38:47;;;;;;;4.13;1.50;;;11.10;99.90;;;;;;5087375;28;20231;-79
2023/10/08 08:41:17;;;;;;;4.63;1.30;;;11.60;99.90;;;;;;5085005;28;20261;-79
2023/10/08 08:43:47;;;;;;;5.27;1.23;;;12.20;99.90;;;;;;5084202;28;20307;-79
2023/10/08 08:46:15;;;;;;;2.60;1.13;;;12.70;99.90;;;;;;5086861;28;20425;-79
2023/10/08 08:48:44;;;;;;;2.50;1.30;;;13.30;99.90;;;;;;5086820;28;20806;-79
2023/10/08 08:51:12;;;;;;;2.10;1.10;;;13.70;99.90;;;;;;5076592;28;20251;-79
2023/10/08 08:53:41;;;;;;;2.83;0.93;;;14.10;99.90;;;;;;5101675;28;20219;-79
2023/10/08 08:56:10;;;;;;;3.10;1.40;;;14.50;99.90;;;;;;5080631;28;20228;-79
2023/10/08 08:58:37;;;;;;;2.40;1.00;;;14.90;99.90;;;;;;5086713;28;20229;-79
2023/10/08 09:01:07;;;;;;;2.03;0.87;;;15.20;99.90;;;;;;5084771;28;20223;-79
2023/10/08 09:03:34;;;;;;;4.17;1.13;;;15.60;99.90;;;;;;5085379;28;20317;-79
2023/10/08 09:06:02;;;;;;;3.00;1.10;;;15.90;99.90;;;;;;5085639;28;20219;-80
2023/10/08 09:08:34;;;;;;;2.57;1.10;;;16.10;99.90;;;;;;5085771;28;20231;-80
2023/10/08 09:11:08;;;;;;;4.23;1.20;;;16.30;99.90;;;;;;5085055;28;20219;-80
2023/10/08 09:13:36;;;;;;;2.77;1.10;;;16.60;99.90;;;;;;5084796;28;20225;-79
2023/10/08 09:16:09;;;;;;;3.20;1.10;;;16.70;99.90;;;;;;5086911;28;20249;-79
2023/10/08 09:18:36;;;;;;;1.63;1.10;;;16.90;99.90;;;;;;5085844;28;20236;-79
2023/10/08 09:21:11;;;;;;;3.20;1.50;;;17.00;99.90;;;;;;5086671;28;20283;-79
2023/10/08 09:23:43;;;;;;;2.77;1.00;;;17.20;99.90;;;;;;5085218;28;20239;-79
2023/10/08 09:26:13;;;;;;;2.23;1.03;;;17.20;99.90;;;;;;5086024;28;20216;-79
2023/10/08 09:28:40;;;;;;;2.60;1.07;;;17.30;99.90;;;;;;5078896;28;20614;-79
2023/10/08 09:31:11;;;;;;;4.13;1.10;;;17.40;99.90;;;;;;5084008;28;20780;-79
2023/10/08 09:33:38;;;;;;;4.07;1.13;;;17.60;99.90;;;;;;5076043;28;20232;-79
2023/10/08 09:36:07;;;;;;;1.33;0.77;;;17.60;99.90;;;;;;5086158;28;20217;-79
2023/10/08 09:38:34;;;;;;;1.67;0.83;;;17.60;99.90;;;;;;5085855;28;20318;-79
2023/10/08 09:41:02;;;;;;;2.07;0.70;;;17.60;99.90;;;;;;5085761;28;20224;-79
2023/10/08 09:43:31;;;;;;;2.80;1.10;;;17.40;99.90;;;;;;5083157;28;20331;-79
2023/10/08 09:46:08;;;;;;;3.73;0.87;;;17.30;99.90;;;;;;5083489;28;20262;-79
2023/10/08 09:48:38;;;;;;;4.23;1.00;;;17.20;99.90;;;;;;5091225;28;20232;-79
2023/10/08 09:51:07;;;;;;;2.23;1.40;;;17.00;99.90;;;;;;5084139;28;20222;-79
2023/10/08 09:53:41;;;;;;;4.23;1.47;;;16.90;99.90;;;;;;5085810;28;20215;-80
2023/10/08 09:56:15;;;;;;;3.20;1.27;;;16.80;99.90;;;;;;5084540;28;20219;-79
2023/10/08 09:58:44;;;;;;;3.47;1.03;;;16.70;99.90;;;;;;5084356;28;20230;-79
2023/10/08 10:01:11;;;;;;;2.13;0.97;;;16.60;99.90;;;;;;5083399;28;20607;-80
2023/10/08 10:03:39;;;;;;;2.43;0.90;;;16.60;99.90;;;;;;5083428;28;20866;-79
2023/10/08 10:06:14;;;;;;;1.20;0.87;;;16.60;99.90;;;;;;5085222;28;20225;-80
2023/10/08 10:08:42;;;;;;;3.57;1.53;;;16.70;99.90;;;;;;5083851;28;20260;-79
2023/10/08 10:11:10;;;;;;;2.63;1.03;;;16.90;99.90;;;;;;5084566;28;20299;-80
2023/10/08 10:13:41;;;;;;;2.70;1.20;;;17.00;99.90;;;;;;5085718;28;20235;-80
2023/10/08 10:16:10;;;;;;;2.53;1.27;;;17.10;99.90;;;;;;5080928;28;20735;-79
2023/10/08 10:18:37;;;;;;;2.63;1.03;;;17.20;99.90;;;;;;5100943;28;20327;-80
2023/10/08 10:21:27;;;;;;;1.40;1.00;;;17.30;99.90;;;;;;5079125;28;20278;-80
2023/10/08 10:23:54;;;;;;;2.10;0.90;;;17.40;99.90;;;;;;5081633;28;20732;-80
2023/10/08 10:26:27;;;;;;;2.13;1.07;;;17.40;99.90;;;;;;5083538;28;20876;-80
2023/10/08 10:29:19;;;;;;;2.00;0.80;;;17.40;99.90;;;;;;5086692;28;20239;-81
2023/10/08 10:31:49;;;;;;;1.43;0.90;;;17.40;99.90;;;;;;5087234;28;20229;-81
2023/10/08 10:34:17;;;;;;;1.83;0.90;;;17.40;99.90;;;;;;5088592;28;20702;-81
2023/10/08 10:36:48;;;;;;;3.37;1.13;;;17.50;99.90;;;;;;5088331;28;20225;-81
2023/10/08 10:39:17;;;;;;;2.87;0.97;;;17.60;99.90;;;;;;5105227;28;20232;-81
2023/10/08 10:41:45;;;;;;;3.27;1.13;;;17.80;99.90;;;;;;5087985;28;20218;-81
2023/10/08 10:44:13;;;;;;;2.47;0.80;;;18.00;99.90;;;;;;5104377;28;20233;-81
2023/10/08 10:46:42;;;;;;;1.63;0.80;;;18.20;99.90;;;;;;5089603;28;20271;-81
2023/10/08 10:49:21;;;;;;;2.50;1.07;;;18.40;99.90;;;;;;5104807;28;20218;-82
2023/10/08 10:51:52;;;;;;;3.17;0.90;;;18.60;99.90;;;;;;5105497;27;20597;-81
2023/10/08 10:54:23;;;;;;;1.57;0.90;;;18.80;99.90;;;;;;5087397;28;20223;-81
2023/10/08 10:57:03;;;;;;;3.37;1.10;;;18.90;99.00;;;;;;5087247;28;20220;-81
2023/10/08 10:59:36;;;;;;;1.47;0.70;;;18.90;99.20;;;;;;5089868;28;20218;-81
2023/10/08 11:02:08;;;;;;;3.27;0.87;;;18.90;98.90;;;;;;5088355;28;20226;-81
2023/10/08 11:04:47;;;;;;;2.60;1.07;;;18.70;98.50;;;;;;5089650;28;20236;-81
2023/10/08 11:07:15;;;;;;;2.80;0.90;;;18.50;98.60;;;;;;5083373;28;20211;-81
2023/10/08 11:09:44;;;;;;;2.47;1.00;;;18.30;99.90;;;;;;5087796;28;20233;-80
2023/10/08 11:12:18;;;;;;;2.83;1.10;;;18.20;99.90;;;;;;5104070;28;20215;-81
2023/10/08 11:14:48;;;;;;;3.90;1.13;;;18.20;99.90;;;;;;5090015;28;20275;-81
2023/10/08 11:17:16;;;;;;;1.30;0.90;;;18.40;99.90;;;;;;5085433;28;20226;-81
2023/10/08 11:19:46;;;;;;;3.00;1.00;;;18.50;99.90;;;;;;5087353;28;20229;-81
2023/10/08 11:22:16;;;;;;;1.47;0.80;;;18.70;99.90;;;;;;5095995;28;20937;-81
2023/10/08 11:24:47;;;;;;;1.20;0.67;;;18.90;99.90;;;;;;5101827;28;20276;-81
2023/10/08 11:27:17;;;;;;;1.67;0.90;;;19.10;99.90;;;;;;5073005;28;20378;-81
2023/10/08 11:29:46;;;;;;;2.20;0.90;;;19.20;99.90;;;;;;5084295;28;20693;-82
2023/10/08 11:32:15;;;;;;;5.00;1.17;;;19.30;99.90;;;;;;5084308;28;20222;-82
2023/10/08 11:34:43;;;;;;;1.87;0.77;;;19.50;98.50;;;;;;5085419;28;20229;-82
2023/10/08 11:37:20;;;;;;;2.20;0.73;;;19.50;98.30;;;;;;5087311;28;20226;-83
2023/10/08 11:39:50;;;;;;;2.27;1.10;;;19.60;98.00;;;;;;5096837;28;20756;-81
2023/10/08 11:45:17;;;;;;;1.43;0.70;;;19.50;97.30;;;;;;5086008;28;20234;-83
2023/10/08 11:47:45;;;;;;;3.80;1.40;;;19.40;96.50;;;;;;5100646;28;20250;-82
2023/10/08 11:50:17;;;;;;;1.30;0.90;;;19.20;96.10;;;;;;5076249;28;20226;-82
2023/10/08 11:52:47;;;;;;;2.57;0.80;;;19.00;95.50;;;;;;5086035;28;20313;-82
2023/10/08 11:55:18;;;;;;;1.37;0.80;;;18.80;96.70;;;;;;5089645;28;20697;-82
2023/10/08 11:57:48;;;;;;;2.13;0.80;;;18.70;95.90;;;;;;5082170;28;20277;-81
2023/10/08 12:00:19;;;;;;;1.77;1.10;;;18.60;95.70;;;;;;5073773;28;20225;-82
2023/10/08 12:02:47;;;;;;;1.83;0.80;;;18.40;95.60;;;;;;5100818;28;20248;-82
2023/10/08 12:05:19;;;;;;;2.13;0.80;;;18.30;96.00;;;;;;5078989;28;20234;-82
2023/10/08 12:07:50;;;;;;;2.33;0.80;;;18.20;94.50;;;;;;5089461;28;20233;-81
2023/10/08 12:10:21;;;;;;;2.83;0.87;;;18.10;94.60;;;;;;5091462;28;20280;-82
2023/10/08 12:12:49;;;;;;;3.37;0.80;;;18.00;95.70;;;;;;5087290;28;20226;-82
2023/10/08 12:15:19;;;;;;;1.63;0.70;;;17.90;96.40;;;;;;5084823;28;20226;-82
2023/10/08 12:18:08;;;;;;;2.50;0.77;;;17.90;96.80;;;;;;5088534;28;20228;-83
2023/10/08 12:20:46;;;;;;;2.07;0.67;;;17.90;96.10;;;;;;5082765;28;20218;-82
2023/10/08 12:23:23;;;;;;;2.30;0.80;;;18.00;96.60;;;;;;5084525;28;20694;-82
2023/10/08 12:25:51;;;;;;;2.40;0.80;;;18.00;95.90;;;;;;5089534;28;20221;-82
2023/10/08 12:28:18;;;;;;;1.83;0.90;;;18.10;95.90;;;;;;5089313;28;20802;-81
2023/10/08 12:30:46;;;;;;;2.53;0.87;;;18.10;95.50;;;;;;5088282;28;20313;-82
2023/10/08 12:33:15;;;;;;;1.73;0.80;;;18.10;95.60;;;;;;5080287;28;20447;-82
2023/10/08 12:35:43;;;;;;;1.93;1.00;;;18.20;95.50;;;;;;5084523;28;20246;-82
2023/10/08 12:38:11;;;;;;;1.57;0.53;;;18.20;95.30;;;;;;5087528;28;20708;-82
2023/10/08 12:40:47;;;;;;;1.43;0.90;;;18.30;94.40;;;;;;5085031;28;20361;-81
2023/10/08 12:43:16;;;;;;;1.70;0.80;;;18.30;94.80;;;;;;5084543;28;20232;-83
2023/10/08 12:45:45;;;;;;;1.87;0.63;;;18.30;93.70;;;;;;5099397;28;20230;-83
2023/10/08 12:48:13;;;;;;;1.47;0.93;;;18.30;93.50;;;;;;5078384;28;20716;-85
2023/10/08 12:50:43;;;;;;;1.63;0.77;;;18.20;93.60;;;;;;5090094;28;20222;-85
2023/10/08 12:53:12;;;;;;;1.80;0.93;;;18.10;92.80;;;;;;5083958;28;20233;-84
2023/10/08 12:55:39;;;;;;;1.57;0.60;;;18.10;92.50;;;;;;5096950;28;20221;-84
2023/10/08 12:58:09;;;;;;;1.73;1.00;;;18.00;93.30;;;;;;5074482;28;20232;-85
2023/10/08 13:00:41;;;;;;;1.23;0.80;;;18.00;93.70;;;;;;5098916;28;20244;-82
2023/10/08 13:03:15;;;;;;;0.73;0.60;;;17.90;93.50;;;;;;5074563;28;20228;-84
2023/10/08 13:05:52;;;;;;;1.30;0.80;;;17.90;94.30;;;;;;5091894;27;20231;-84
2023/10/08 13:08:20;;;;;;;1.33;0.70;;;17.90;94.40;;;;;;5066537;28;20228;-83
2023/10/08 13:10:47;;;;;;;1.47;0.73;;;17.90;94.10;;;;;;5076644;28;20311;-84
2023/10/08 13:13:14;;;;;;;2.27;0.90;;;17.80;93.50;;;;;;5068323;28;20304;-86
2023/10/08 13:15:44;;;;;;;1.33;0.87;;;17.80;94.50;;;;;;5093692;28;20277;-82
2023/10/08 13:18:11;;;;;;;3.20;1.00;;;17.70;95.50;;;;;;5085796;28;20232;-83
2023/10/08 13:20:40;;;;;;;1.10;0.70;;;17.60;94.40;;;;;;5086461;28;20836;-85
2023/10/08 13:23:07;;;;;;;1.60;0.80;;;17.60;94.50;;;;;;5086941;28;20889;-84
2023/10/08 13:25:39;;;;;;;2.80;0.93;;;17.60;94.30;;;;;;5088189;28;20309;-84
2023/10/08 13:28:11;;;;;;;1.57;0.80;;;17.50;93.20;;;;;;5090308;28;20630;-84
2023/10/08 13:30:39;;;;;;;2.23;0.87;;;17.40;93.80;;;;;;5102018;28;20224;-83